El Zurdo, Argentina
Current Conditions -  °F | °C
As of 6:00 AM on Monday 24 Nov 2014 (Local Time) from SCCI Reporting Station
Scattered Clouds Scattered Clouds  
Wind Chill: 32°   Ceiling: Unl
Heat Index: 43°   Visibility: 6mi
Dew Point: 36°   Wind: 35mph
Humidity: 76%   Direction: 240°WSW
Pressure: 29.41"   Gusts: 46mph
Location:  51.99°S, 71.22°W
Report Text: SCCI 240900Z 24030G40KT 9999 FEW030 SCT100 06/02 Q0996 NOSIG
Loading
Personal Weather Stations






























Interactive Weather Map New forecast layout! Learn more

10-Day Weather Forecast

Advertisements
Track Severe Weather on mobile